Time;durP1;ratioP1;P1;durP2;ratioP2;P2;SDS_P1;SDS_P2;PMS_P1;PMS_P2;Temp;Humidity;BMP_temperature;BMP_pressure;BME280_temperature;BME280_humidity;BME280_pressure;Samples;Min_cycle;Max_cycle;Signal;HPM_P1;HPM_P2
2021/09/15 00:01:20;;;;;;;8.95;6.82;;;20.10;71.30;;;;;;5045331;28;20301;-41
2021/09/15 00:04:05;;;;;;;10.13;6.60;;;20.20;71.30;;;;;;5044305;28;20092;-42
2021/09/15 00:06:49;;;;;;;10.15;6.25;;;20.20;71.40;;;;;;5045036;28;20374;-42
2021/09/15 00:09:33;;;;;;;8.18;5.85;;;20.10;71.50;;;;;;5045488;28;20044;-43
2021/09/15 00:12:17;;;;;;;8.70;6.20;;;20.10;71.60;;;;;;5045441;28;20077;-42
2021/09/15 00:15:01;;;;;;;8.40;6.18;;;20.10;71.60;;;;;;5044878;28;20056;-42
2021/09/15 00:17:46;;;;;;;11.82;6.78;;;20.00;71.90;;;;;;5045336;28;20383;-41
2021/09/15 00:20:30;;;;;;;8.93;6.68;;;20.00;72.00;;;;;;5044865;28;20068;-42
2021/09/15 00:23:14;;;;;;;7.95;6.07;;;20.10;72.00;;;;;;5044812;28;20033;-42
2021/09/15 00:25:59;;;;;;;12.35;6.75;;;20.10;71.80;;;;;;5044780;28;20052;-43
2021/09/15 00:28:43;;;;;;;9.57;6.70;;;20.00;72.00;;;;;;5044556;28;20097;-41
2021/09/15 00:31:27;;;;;;;9.25;6.10;;;20.10;71.60;;;;;;5044658;28;20328;-43
2021/09/15 00:34:11;;;;;;;10.63;6.28;;;20.10;71.60;;;;;;5044829;28;20044;-43
2021/09/15 00:36:56;;;;;;;10.57;5.82;;;20.10;71.40;;;;;;5044652;28;20028;-42
2021/09/15 00:39:40;;;;;;;9.07;6.30;;;20.10;71.50;;;;;;5044659;28;20093;-43
2021/09/15 00:42:25;;;;;;;8.98;6.57;;;20.10;71.50;;;;;;5044883;28;20029;-42
2021/09/15 00:45:09;;;;;;;8.63;6.28;;;20.10;71.50;;;;;;5044574;28;20344;-41
2021/09/15 00:47:54;;;;;;;8.80;6.32;;;20.00;71.70;;;;;;5044437;28;20041;-41
2021/09/15 00:50:38;;;;;;;9.75;6.30;;;19.90;71.70;;;;;;5044823;28;20390;-43
2021/09/15 00:53:22;;;;;;;9.68;5.95;;;19.90;71.80;;;;;;5044769;28;20036;-42
2021/09/15 00:56:06;;;;;;;8.25;6.28;;;19.90;71.70;;;;;;5043413;28;20450;-46
2021/09/15 00:58:50;;;;;;;8.50;6.20;;;19.90;71.60;;;;;;5044231;28;20028;-42
2021/09/15 01:01:35;;;;;;;10.70;6.38;;;19.90;71.60;;;;;;5044131;28;20032;-41
2021/09/15 01:04:19;;;;;;;7.55;6.05;;;19.90;71.70;;;;;;5044136;28;20063;-44
2021/09/15 01:07:03;;;;;;;9.13;6.43;;;19.90;71.70;;;;;;5043918;28;20032;-42
2021/09/15 01:09:48;;;;;;;13.55;6.72;;;19.80;71.70;;;;;;5042982;28;20024;-42
2021/09/15 01:12:32;;;;;;;7.65;5.93;;;19.80;71.80;;;;;;5043630;28;20072;-43
2021/09/15 01:15:16;;;;;;;8.13;6.57;;;19.90;71.60;;;;;;5043074;28;20225;-43
2021/09/15 01:18:13;;;;;;;9.55;6.75;;;19.90;71.60;;;;;;5043889;28;20095;-43
2021/09/15 01:20:57;;;;;;;7.57;6.18;;;19.90;71.90;;;;;;5044149;28;20140;-43
2021/09/15 01:23:41;;;;;;;7.72;6.32;;;19.80;72.00;;;;;;5043680;28;20080;-42
2021/09/15 01:26:35;;;;;;;9.10;6.65;;;19.80;72.20;;;;;;5043129;28;20027;-43
2021/09/15 01:29:21;;;;;;;9.23;6.25;;;19.90;72.10;;;;;;5043944;28;20043;-42
2021/09/15 01:32:10;;;;;;;7.47;6.32;;;19.80;72.10;;;;;;5044851;28;20035;-42
2021/09/15 01:34:55;;;;;;;8.77;5.95;;;19.80;72.20;;;;;;5047647;28;20035;-42
2021/09/15 01:37:39;;;;;;;9.30;6.03;;;19.80;72.20;;;;;;5046985;28;20056;-42
2021/09/15 01:40:23;;;;;;;8.27;6.07;;;19.70;72.20;;;;;;5047737;28;20252;-42
2021/09/15 01:43:07;;;;;;;7.90;6.53;;;19.80;71.80;;;;;;5047610;28;20148;-41
2021/09/15 01:45:51;;;;;;;8.68;6.10;;;19.80;71.90;;;;;;5047594;28;20032;-43
2021/09/15 01:48:36;;;;;;;13.68;6.38;;;19.60;72.00;;;;;;5047456;28;20036;-42
2021/09/15 01:51:20;;;;;;;8.30;6.15;;;19.60;72.00;;;;;;5047802;28;20029;-42
2021/09/15 01:54:04;;;;;;;8.00;6.00;;;19.60;72.00;;;;;;5047415;28;20075;-41
2021/09/15 01:56:49;;;;;;;7.30;6.13;;;19.50;72.00;;;;;;5047102;28;20090;-42
2021/09/15 01:59:33;;;;;;;8.50;6.50;;;19.50;71.80;;;;;;5047612;28;20394;-42
2021/09/15 02:02:17;;;;;;;9.60;6.22;;;19.50;71.80;;;;;;5047759;28;20093;-42
2021/09/15 02:05:02;;;;;;;11.10;6.68;;;19.50;71.80;;;;;;5047435;28;20036;-41
2021/09/15 02:07:46;;;;;;;7.18;5.50;;;19.40;71.80;;;;;;5047609;28;20036;-42
2021/09/15 02:10:30;;;;;;;8.80;6.43;;;19.30;71.90;;;;;;5047367;28;20076;-43
2021/09/15 02:13:14;;;;;;;8.48;6.72;;;19.40;71.70;;;;;;5047387;28;20324;-41
2021/09/15 02:15:59;;;;;;;9.48;6.30;;;19.40;71.60;;;;;;5046763;28;20059;-41
2021/09/15 02:18:43;;;;;;;9.13;6.60;;;19.30;71.60;;;;;;5046981;28;20035;-41
2021/09/15 02:21:27;;;;;;;9.73;6.60;;;19.30;71.80;;;;;;5046723;28;20052;-41
2021/09/15 02:24:12;;;;;;;9.10;6.45;;;19.30;71.80;;;;;;5047592;28;20080;-41
2021/09/15 02:26:56;;;;;;;7.45;6.53;;;19.30;71.70;;;;;;5046094;28;20064;-41
2021/09/15 02:29:40;;;;;;;9.40;6.47;;;19.20;71.70;;;;;;5047259;28;20209;-41
2021/09/15 02:32:24;;;;;;;11.20;6.50;;;19.20;71.70;;;;;;5047133;28;20043;-43
2021/09/15 02:35:08;;;;;;;9.88;6.57;;;19.20;71.70;;;;;;5046754;28;20159;-41
2021/09/15 02:37:52;;;;;;;8.60;6.28;;;19.20;71.70;;;;;;5046730;28;20060;-41
2021/09/15 02:40:37;;;;;;;7.82;6.20;;;19.10;71.80;;;;;;5046650;28;20385;-41
2021/09/15 02:43:21;;;;;;;9.98;6.35;;;19.10;71.90;;;;;;5045756;28;20128;-43
2021/09/15 02:46:05;;;;;;;7.88;6.10;;;19.00;72.00;;;;;;5046607;28;20071;-41
2021/09/15 02:48:50;;;;;;;8.10;6.40;;;19.10;72.00;;;;;;5046451;28;20068;-42
2021/09/15 02:51:34;;;;;;;7.15;5.97;;;19.10;71.80;;;;;;5046351;28;20213;-42
2021/09/15 02:54:18;;;;;;;8.20;6.00;;;19.00;71.80;;;;;;5047327;28;20021;-42
2021/09/15 02:57:03;;;;;;;8.32;6.45;;;19.00;71.80;;;;;;5046243;28;20040;-42
2021/09/15 02:59:47;;;;;;;8.63;6.03;;;19.00;71.90;;;;;;5046715;28;20036;-41
2021/09/15 03:02:31;;;;;;;7.97;5.93;;;18.90;71.90;;;;;;5046551;28;20363;-42
2021/09/15 03:05:16;;;;;;;10.57;6.13;;;18.90;71.90;;;;;;5046494;28;20040;-41
2021/09/15 03:08:00;;;;;;;7.60;5.82;;;18.90;71.80;;;;;;5045945;28;20029;-41
2021/09/15 03:10:44;;;;;;;8.45;5.55;;;18.90;71.80;;;;;;5046289;28;20043;-41
2021/09/15 03:13:28;;;;;;;9.40;6.10;;;18.90;71.80;;;;;;5044984;28;20056;-40
2021/09/15 03:16:14;;;;;;;8.18;6.70;;;18.80;71.80;;;;;;5045668;28;20048;-41
2021/09/15 03:18:58;;;;;;;10.40;6.03;;;18.80;71.70;;;;;;5046028;28;20083;-42
2021/09/15 03:21:44;;;;;;;8.82;6.05;;;18.90;71.50;;;;;;5045690;28;20032;-41
2021/09/15 03:24:28;;;;;;;8.88;6.43;;;18.80;71.70;;;;;;5045598;28;20040;-41
2021/09/15 03:27:12;;;;;;;9.00;6.32;;;18.80;71.70;;;;;;5046364;28;20108;-41
2021/09/15 03:29:56;;;;;;;8.63;6.00;;;18.80;71.80;;;;;;5045702;28;20036;-41
2021/09/15 03:32:40;;;;;;;9.75;6.50;;;18.80;71.80;;;;;;5045485;28;20032;-41
2021/09/15 03:35:25;;;;;;;11.68;6.53;;;18.70;71.90;;;;;;5045400;28;20265;-41
2021/09/15 03:38:09;;;;;;;9.95;6.25;;;18.70;72.00;;;;;;5045366;28;20036;-41
2021/09/15 03:40:53;;;;;;;8.73;6.28;;;18.70;72.10;;;;;;5045322;28;20036;-41
2021/09/15 03:43:38;;;;;;;8.75;6.20;;;18.70;71.90;;;;;;5045391;28;20032;-42
2021/09/15 03:46:22;;;;;;;7.57;5.57;;;18.70;72.00;;;;;;5045233;28;20076;-41
2021/09/15 03:49:06;;;;;;;9.05;5.80;;;18.70;72.10;;;;;;5044288;28;20033;-41
2021/09/15 03:51:51;;;;;;;7.80;5.88;;;18.70;72.20;;;;;;5044893;28;20028;-41
2021/09/15 03:54:35;;;;;;;8.40;6.03;;;18.60;72.20;;;;;;5044799;28;20032;-41
2021/09/15 03:57:20;;;;;;;11.40;6.10;;;18.60;72.30;;;;;;5044668;28;20260;-41
2021/09/15 04:00:04;;;;;;;7.93;5.90;;;18.60;72.20;;;;;;5045023;28;20036;-41
2021/09/15 04:02:48;;;;;;;9.45;5.60;;;18.70;72.00;;;;;;5044857;28;20036;-41
2021/09/15 04:05:33;;;;;;;8.32;5.75;;;18.60;72.30;;;;;;5045479;28;20044;-41
2021/09/15 04:08:17;;;;;;;8.13;5.68;;;18.60;72.30;;;;;;5045227;28;20248;-43
2021/09/15 04:11:01;;;;;;;8.43;6.10;;;18.50;72.40;;;;;;5045321;28;20332;-42
2021/09/15 04:13:46;;;;;;;8.38;5.55;;;18.50;72.40;;;;;;5045221;28;20096;-42
2021/09/15 04:16:30;;;;;;;7.43;5.82;;;18.50;72.50;;;;;;5044617;28;20056;-41
2021/09/15 04:19:14;;;;;;;11.45;6.25;;;18.50;72.40;;;;;;5044801;28;20033;-41
2021/09/15 04:21:59;;;;;;;10.93;6.35;;;18.50;72.30;;;;;;5044657;28;20025;-41
2021/09/15 04:33:53;;;;;;;8.35;6.20;;;18.40;72.50;;;;;;5044539;28;20339;-41
2021/09/15 04:36:37;;;;;;;9.95;6.18;;;18.50;72.30;;;;;;5044086;28;20036;-41
2021/09/15 04:39:22;;;;;;;11.73;6.15;;;18.40;72.30;;;;;;5044642;28;20067;-41
2021/09/15 04:42:06;;;;;;;11.77;6.18;;;18.50;72.40;;;;;;5044150;28;20255;-41
2021/09/15 04:44:50;;;;;;;7.82;6.03;;;18.40;72.40;;;;;;5044057;28;20029;-41
2021/09/15 04:47:34;;;;;;;6.85;5.53;;;18.40;72.50;;;;;;5044419;28;20404;-41
2021/09/15 04:50:18;;;;;;;7.47;5.68;;;18.30;72.70;;;;;;5043986;28;20036;-42
2021/09/15 04:53:03;;;;;;;7.65;5.45;;;18.40;72.60;;;;;;5043833;28;20036;-41
2021/09/15 04:55:47;;;;;;;8.68;5.55;;;18.40;72.80;;;;;;5043840;28;20362;-42
2021/09/15 04:58:31;;;;;;;10.10;5.60;;;18.40;72.80;;;;;;5043547;28;20213;-42
2021/09/15 05:01:16;;;;;;;8.70;6.07;;;18.40;73.00;;;;;;5043719;28;20071;-44
2021/09/15 05:04:00;;;;;;;8.13;5.85;;;18.50;73.20;;;;;;5043637;28;20072;-42
2021/09/15 05:06:45;;;;;;;7.75;5.50;;;18.50;73.30;;;;;;5043270;28;20057;-41
2021/09/15 05:09:29;;;;;;;6.93;5.55;;;18.40;73.20;;;;;;5043701;28;20052;-41
2021/09/15 05:12:13;;;;;;;9.48;5.95;;;18.40;73.20;;;;;;5043911;28;20040;-42
2021/09/15 05:14:58;;;;;;;8.50;5.70;;;18.40;73.20;;;;;;5043745;28;20099;-41
2021/09/15 05:17:44;;;;;;;10.02;5.47;;;18.50;73.10;;;;;;5043845;28;20049;-41
2021/09/15 05:20:28;;;;;;;7.13;5.53;;;18.50;73.30;;;;;;5043933;28;20228;-41
2021/09/15 05:23:12;;;;;;;9.23;5.90;;;18.60;73.20;;;;;;5043411;28;20033;-41
2021/09/15 05:25:56;;;;;;;9.95;6.10;;;18.50;73.30;;;;;;5043554;28;20040;-42
2021/09/15 05:28:41;;;;;;;11.52;6.00;;;18.60;73.30;;;;;;5043402;28;20024;-41
2021/09/15 05:31:25;;;;;;;6.45;5.40;;;18.70;73.30;;;;;;5043508;28;20044;-41
2021/09/15 05:34:09;;;;;;;11.50;5.97;;;18.70;73.40;;;;;;5043290;28;20059;-42
2021/09/15 05:36:54;;;;;;;8.77;5.93;;;18.70;73.60;;;;;;5043318;28;20044;-41
2021/09/15 05:39:38;;;;;;;10.48;6.35;;;18.70;73.80;;;;;;5043310;28;20032;-41
2021/09/15 05:42:22;;;;;;;7.85;5.25;;;18.80;73.60;;;;;;5043754;28;20205;-43
2021/09/15 05:45:07;;;;;;;9.82;6.88;;;18.70;73.40;;;;;;5043381;28;20144;-41
2021/09/15 05:47:51;;;;;;;10.25;5.80;;;18.80;73.30;;;;;;5043333;28;20241;-41
2021/09/15 05:50:35;;;;;;;11.00;6.20;;;18.80;73.60;;;;;;5043718;28;20072;-42
2021/09/15 05:53:20;;;;;;;8.95;6.03;;;18.80;73.50;;;;;;5043140;28;20076;-43
2021/09/15 05:56:04;;;;;;;10.70;6.45;;;18.80;73.80;;;;;;5043552;28;20036;-41
2021/09/15 05:58:48;;;;;;;11.07;6.55;;;19.00;73.40;;;;;;5043157;28;20048;-41
2021/09/15 06:01:32;;;;;;;10.25;6.10;;;19.00;73.90;;;;;;5043241;28;20064;-41
2021/09/15 06:04:17;;;;;;;10.52;5.88;;;18.90;74.10;;;;;;5043163;28;20024;-40
2021/09/15 06:07:01;;;;;;;9.07;5.85;;;19.00;74.10;;;;;;5043154;28;20052;-41
2021/09/15 06:09:45;;;;;;;9.57;6.20;;;19.10;74.20;;;;;;5043040;28;20078;-41
2021/09/15 06:12:30;;;;;;;7.38;5.70;;;19.20;74.10;;;;;;5042881;28;20351;-43
2021/09/15 06:15:14;;;;;;;9.75;6.55;;;19.10;73.90;;;;;;5043166;28;20056;-41
2021/09/15 06:17:58;;;;;;;9.15;6.13;;;19.20;74.00;;;;;;5043091;28;20343;-41
2021/09/15 06:20:43;;;;;;;8.90;5.90;;;19.20;74.30;;;;;;5047007;28;20066;-41
2021/09/15 06:23:29;;;;;;;9.93;6.28;;;19.20;73.90;;;;;;5046787;28;20220;-41
2021/09/15 06:26:14;;;;;;;7.80;5.90;;;19.30;73.70;;;;;;5047009;28;20113;-41
2021/09/15 06:28:58;;;;;;;9.40;5.80;;;19.30;73.80;;;;;;5046789;28;20277;-43
2021/09/15 06:31:43;;;;;;;11.82;6.03;;;19.30;73.90;;;;;;5046637;28;20056;-42
2021/09/15 06:34:27;;;;;;;9.77;5.93;;;19.40;74.30;;;;;;5046555;28;20133;-41
2021/09/15 06:37:13;;;;;;;7.63;5.60;;;19.40;74.50;;;;;;5031472;28;20040;-42
2021/09/15 06:39:58;;;;;;;14.80;6.45;;;19.50;74.60;;;;;;5046718;28;20067;-41
2021/09/15 06:42:42;;;;;;;10.15;6.35;;;19.60;74.50;;;;;;5046173;28;20324;-42
2021/09/15 06:45:26;;;;;;;7.40;5.95;;;19.60;74.60;;;;;;5046275;28;20379;-43
2021/09/15 06:48:10;;;;;;;10.80;6.00;;;19.70;74.40;;;;;;5046649;28;20052;-41
2021/09/15 06:50:55;;;;;;;9.45;5.95;;;19.70;74.20;;;;;;5046349;28;20036;-41
2021/09/15 06:53:39;;;;;;;10.02;6.20;;;19.80;74.10;;;;;;5046597;28;20036;-43
2021/09/15 06:56:23;;;;;;;10.60;6.28;;;19.80;74.00;;;;;;5045942;28;20036;-41
2021/09/15 06:59:08;;;;;;;9.02;5.68;;;19.90;73.90;;;;;;5045998;28;20319;-43
2021/09/15 07:01:52;;;;;;;7.63;5.35;;;20.00;73.90;;;;;;5045923;28;20352;-42
2021/09/15 07:04:36;;;;;;;9.27;6.18;;;20.20;73.60;;;;;;5045949;28;20029;-42
2021/09/15 07:07:20;;;;;;;8.23;5.65;;;20.20;73.30;;;;;;5045774;28;20024;-44
2021/09/15 07:10:06;;;;;;;7.70;5.40;;;20.30;73.40;;;;;;5045768;28;20080;-42
2021/09/15 07:12:50;;;;;;;7.60;6.00;;;20.30;73.40;;;;;;5045763;28;20036;-41
2021/09/15 07:15:35;;;;;;;11.00;5.80;;;20.20;73.30;;;;;;5045455;28;20448;-41
2021/09/15 07:18:19;;;;;;;8.35;5.78;;;20.30;73.40;;;;;;5046083;28;20021;-43
2021/09/15 07:21:03;;;;;;;7.93;5.80;;;20.30;73.50;;;;;;5045792;28;20067;-42
2021/09/15 07:23:47;;;;;;;7.22;5.72;;;20.30;73.40;;;;;;5045725;28;20071;-44
2021/09/15 07:26:31;;;;;;;9.38;6.15;;;20.30;73.80;;;;;;5045819;28;20044;-41
2021/09/15 07:29:16;;;;;;;8.13;5.70;;;20.30;74.00;;;;;;5045773;28;20208;-41
2021/09/15 07:32:00;;;;;;;12.63;6.55;;;20.30;74.00;;;;;;5045381;28;20411;-42
2021/09/15 07:34:45;;;;;;;9.65;6.15;;;20.40;73.90;;;;;;5045630;28;20072;-41
2021/09/15 07:37:30;;;;;;;10.10;5.60;;;20.50;73.80;;;;;;5045356;28;20032;-43
2021/09/15 07:40:14;;;;;;;9.13;6.03;;;20.60;73.60;;;;;;5045372;28;20091;-42
2021/09/15 07:42:59;;;;;;;9.02;6.00;;;20.80;73.20;;;;;;5045238;28;20028;-42
2021/09/15 07:45:43;;;;;;;8.30;6.28;;;20.90;72.80;;;;;;5045147;28;20033;-44
2021/09/15 07:48:28;;;;;;;7.90;5.82;;;21.00;72.70;;;;;;5045035;28;20116;-42
2021/09/15 07:51:12;;;;;;;11.13;6.65;;;21.10;72.80;;;;;;5045521;28;20256;-42
2021/09/15 07:53:56;;;;;;;11.45;6.80;;;21.10;72.90;;;;;;5045192;28;20343;-42
2021/09/15 07:56:41;;;;;;;9.43;6.47;;;21.10;72.80;;;;;;5044830;28;20097;-43
2021/09/15 07:59:25;;;;;;;10.15;6.28;;;21.10;72.60;;;;;;5045287;28;20035;-43
2021/09/15 08:02:09;;;;;;;9.07;5.90;;;21.20;72.50;;;;;;5045198;28;20040;-42
2021/09/15 08:04:53;;;;;;;8.60;6.13;;;21.20;72.70;;;;;;5044970;28;20101;-42
2021/09/15 08:07:38;;;;;;;8.65;6.32;;;21.20;72.60;;;;;;5044743;28;20036;-43
2021/09/15 08:10:22;;;;;;;10.70;6.38;;;21.30;72.60;;;;;;5044696;28;20067;-42
2021/09/15 08:13:07;;;;;;;8.90;6.00;;;21.30;72.60;;;;;;5044708;28;20288;-42
2021/09/15 08:15:54;;;;;;;9.77;6.50;;;21.30;72.50;;;;;;5044366;28;20049;-43
2021/09/15 08:18:38;;;;;;;11.48;6.25;;;21.30;72.30;;;;;;5044509;28;20037;-42
2021/09/15 08:21:22;;;;;;;11.07;6.32;;;21.30;72.50;;;;;;5044923;28;20032;-43
2021/09/15 08:24:07;;;;;;;12.45;6.65;;;21.30;73.10;;;;;;5044507;28;20225;-42
2021/09/15 08:26:51;;;;;;;9.30;6.30;;;21.20;73.20;;;;;;5044536;28;20135;-43
2021/09/15 08:29:36;;;;;;;11.43;6.80;;;21.30;72.90;;;;;;5029376;28;20079;-42
2021/09/15 08:32:20;;;;;;;9.18;5.90;;;21.30;72.80;;;;;;5044673;28;20044;-43
2021/09/15 08:35:05;;;;;;;10.02;6.05;;;21.30;72.60;;;;;;5044541;28;20068;-42
2021/09/15 08:37:49;;;;;;;9.77;6.28;;;21.30;72.50;;;;;;5044438;28;20051;-43
2021/09/15 08:40:33;;;;;;;11.27;5.70;;;21.50;72.60;;;;;;5043881;28;20351;-43
2021/09/15 08:43:18;;;;;;;8.60;5.97;;;21.50;72.60;;;;;;5043768;28;20132;-42
2021/09/15 08:46:03;;;;;;;9.57;6.57;;;21.70;72.70;;;;;;5044115;28;20344;-42
2021/09/15 08:48:47;;;;;;;8.38;6.10;;;21.80;72.20;;;;;;5043923;28;20036;-42
2021/09/15 08:51:32;;;;;;;10.38;6.38;;;21.80;71.60;;;;;;5044326;28;20145;-43
2021/09/15 08:54:16;;;;;;;9.35;6.22;;;21.80;71.60;;;;;;5029711;28;20024;-42
2021/09/15 08:57:00;;;;;;;7.18;5.97;;;21.90;71.70;;;;;;5043957;28;20041;-43
2021/09/15 08:59:44;;;;;;;10.73;6.55;;;22.00;71.80;;;;;;5044684;28;20075;-44
2021/09/15 09:02:39;;;;;;;8.50;6.18;;;22.10;71.80;;;;;;5044216;28;20032;-43
2021/09/15 09:05:23;;;;;;;8.00;5.88;;;22.10;71.30;;;;;;5044453;28;20033;-42
2021/09/15 09:08:23;;;;;;;10.25;6.40;;;22.10;70.70;;;;;;5043707;28;20041;-42
2021/09/15 09:11:07;;;;;;;9.35;6.13;;;22.30;70.80;;;;;;5043598;28;20044;-42
2021/09/15 09:13:53;;;;;;;8.27;5.80;;;22.30;70.70;;;;;;5043727;28;20072;-46
2021/09/15 09:16:45;;;;;;;10.27;6.03;;;22.40;70.60;;;;;;5043387;28;20087;-44
2021/09/15 09:19:29;;;;;;;10.05;6.35;;;22.50;70.30;;;;;;5043526;28;20076;-42
2021/09/15 09:22:13;;;;;;;9.40;6.25;;;22.50;70.20;;;;;;5043496;28;20048;-43
2021/09/15 09:24:57;;;;;;;9.52;5.70;;;22.60;69.90;;;;;;5043685;28;20075;-44
2021/09/15 09:27:42;;;;;;;7.93;5.57;;;22.60;69.30;;;;;;5043535;28;20025;-43
2021/09/15 09:30:36;;;;;;;8.25;5.93;;;22.70;69.40;;;;;;5042585;28;20017;-42
2021/09/15 09:33:20;;;;;;;8.55;5.47;;;22.70;69.40;;;;;;5043944;28;20025;-42
2021/09/15 09:36:08;;;;;;;8.65;5.90;;;22.70;69.40;;;;;;5043500;28;20103;-43
2021/09/15 09:38:52;;;;;;;8.50;5.65;;;22.70;69.00;;;;;;5043535;28;20256;-42
2021/09/15 09:41:37;;;;;;;10.38;5.85;;;22.70;68.70;;;;;;5043793;28;20052;-42
2021/09/15 09:44:27;;;;;;;8.15;5.63;;;22.70;68.20;;;;;;5042427;28;20031;-42
2021/09/15 09:47:24;;;;;;;10.73;5.50;;;22.80;68.90;;;;;;5043790;28;20040;-44
2021/09/15 09:50:13;;;;;;;10.20;6.10;;;22.80;68.80;;;;;;5043649;28;20071;-42
2021/09/15 09:53:00;;;;;;;8.32;5.72;;;22.80;68.60;;;;;;5044598;28;20056;-44
2021/09/15 09:55:45;;;;;;;9.95;6.25;;;22.80;69.10;;;;;;5047454;28;20064;-43
2021/09/15 09:58:29;;;;;;;9.50;5.45;;;22.80;69.50;;;;;;5048405;28;20058;-41
2021/09/15 10:01:17;;;;;;;10.20;6.15;;;22.90;69.90;;;;;;5047032;28;20033;-42
2021/09/15 10:04:03;;;;;;;11.30;5.82;;;22.90;70.40;;;;;;5046376;28;20063;-44
2021/09/15 10:06:47;;;;;;;7.40;5.55;;;23.10;69.90;;;;;;5046988;28;20048;-45
2021/09/15 10:09:32;;;;;;;10.57;5.70;;;23.20;69.90;;;;;;5046969;28;20107;-44
2021/09/15 10:12:16;;;;;;;7.60;5.38;;;23.30;69.10;;;;;;5047351;28;20040;-43
2021/09/15 10:15:00;;;;;;;9.50;5.57;;;23.40;68.80;;;;;;5046068;28;20060;-44
2021/09/15 10:17:49;;;;;;;8.20;5.75;;;23.50;68.00;;;;;;5046450;28;20064;-42
2021/09/15 10:20:33;;;;;;;8.85;5.95;;;23.50;68.00;;;;;;5047187;28;20058;-43
2021/09/15 10:23:47;;;;;;;8.07;5.82;;;23.70;68.00;;;;;;5045923;28;20226;-45
2021/09/15 10:26:41;;;;;;;10.60;6.40;;;23.80;67.80;;;;;;5046728;28;20220;-43
2021/09/15 10:29:28;;;;;;;10.52;5.70;;;23.80;68.00;;;;;;5047057;28;20171;-43
2021/09/15 10:32:12;;;;;;;8.60;5.72;;;23.90;66.40;;;;;;5046981;28;20033;-45
2021/09/15 10:34:57;;;;;;;10.90;5.90;;;24.00;66.20;;;;;;5046803;28;20093;-43
2021/09/15 10:37:41;;;;;;;9.60;6.30;;;24.00;66.10;;;;;;5045440;28;20064;-45
2021/09/15 10:40:29;;;;;;;11.95;6.53;;;24.00;66.10;;;;;;5046341;28;20043;-42
2021/09/15 10:43:40;;;;;;;9.80;6.85;;;24.00;65.80;;;;;;5046508;28;20036;-43
2021/09/15 10:46:25;;;;;;;8.65;6.32;;;24.10;66.80;;;;;;5046556;28;20041;-42
2021/09/15 10:49:39;;;;;;;13.55;7.00;;;24.10;66.00;;;;;;5046369;28;20032;-45
2021/09/15 10:52:23;;;;;;;12.88;6.57;;;24.20;65.70;;;;;;5043057;28;20067;-47
2021/09/15 10:55:17;;;;;;;8.55;6.28;;;24.20;65.80;;;;;;5045339;28;20248;-43
2021/09/15 10:58:12;;;;;;;10.73;7.13;;;24.20;65.00;;;;;;5046175;28;20091;-43
2021/09/15 11:01:01;;;;;;;11.13;7.00;;;24.20;65.60;;;;;;5045994;28;20355;-44
2021/09/15 11:03:52;;;;;;;8.80;6.00;;;24.30;65.60;;;;;;5046024;28;20289;-42
2021/09/15 11:06:37;;;;;;;9.27;5.97;;;24.30;65.10;;;;;;5045679;28;20379;-42
2021/09/15 11:09:21;;;;;;;8.27;6.38;;;24.30;65.90;;;;;;5046292;28;20067;-42
2021/09/15 11:12:05;;;;;;;10.45;6.80;;;24.30;66.00;;;;;;5031017;28;20179;-43
2021/09/15 11:14:55;;;;;;;8.85;6.97;;;24.40;65.50;;;;;;5045641;28;20053;-42
2021/09/15 11:17:39;;;;;;;12.13;6.93;;;24.50;65.90;;;;;;5045659;28;20040;-42
2021/09/15 11:20:25;;;;;;;13.98;6.72;;;24.50;65.50;;;;;;5046030;28;20101;-42
2021/09/15 11:23:10;;;;;;;9.75;6.63;;;24.50;65.60;;;;;;5045516;28;20397;-42
2021/09/15 11:25:55;;;;;;;8.68;6.60;;;24.60;65.40;;;;;;5045605;28;20089;-44
2021/09/15 11:28:39;;;;;;;16.73;6.63;;;24.70;64.60;;;;;;5045637;28;20253;-43
2021/09/15 11:31:23;;;;;;;12.55;6.53;;;24.80;64.40;;;;;;5030612;28;20033;-43
2021/09/15 11:34:09;;;;;;;12.32;6.80;;;24.80;64.20;;;;;;5030649;28;20056;-43
2021/09/15 11:36:53;;;;;;;11.02;6.63;;;24.80;64.30;;;;;;5045269;28;20036;-42
2021/09/15 11:39:37;;;;;;;11.70;6.80;;;24.80;64.50;;;;;;5045491;28;20201;-43
2021/09/15 11:42:23;;;;;;;8.98;6.38;;;24.80;64.80;;;;;;5045780;28;20025;-43
2021/09/15 11:45:11;;;;;;;11.18;6.45;;;24.80;64.60;;;;;;5045518;28;20083;-42
2021/09/15 11:47:55;;;;;;;11.60;6.43;;;24.70;64.10;;;;;;5045082;28;20300;-44
2021/09/15 11:50:39;;;;;;;10.90;6.47;;;24.70;64.80;;;;;;5045673;28;20041;-43
2021/09/15 11:53:25;;;;;;;10.40;6.10;;;24.60;64.50;;;;;;5045221;28;20031;-44
2021/09/15 11:56:18;;;;;;;10.43;6.05;;;24.60;64.50;;;;;;5044901;28;20052;-43
2021/09/15 11:59:02;;;;;;;8.63;6.05;;;24.60;64.50;;;;;;5031665;28;20056;-43
2021/09/15 12:01:47;;;;;;;16.30;6.93;;;24.60;65.00;;;;;;5044784;28;20127;-42
2021/09/15 12:04:33;;;;;;;14.68;6.22;;;24.50;64.60;;;;;;5045030;28;20091;-42
2021/09/15 12:07:17;;;;;;;10.93;6.65;;;24.50;64.90;;;;;;5044035;28;20033;-43
2021/09/15 12:10:06;;;;;;;12.13;6.68;;;24.60;65.10;;;;;;5044794;28;20064;-47
2021/09/15 12:12:53;;;;;;;9.63;6.47;;;24.50;65.30;;;;;;5030339;28;20080;-42
2021/09/15 12:15:47;;;;;;;8.25;5.93;;;24.50;65.30;;;;;;5044150;28;20048;-43
2021/09/15 12:18:46;;;;;;;16.20;5.85;;;24.50;65.20;;;;;;5044371;28;20023;-45
2021/09/15 12:21:30;;;;;;;10.88;5.40;;;24.60;65.10;;;;;;5044541;28;20076;-43
2021/09/15 12:24:15;;;;;;;9.13;5.45;;;24.50;64.90;;;;;;5044850;28;20092;-43
2021/09/15 12:27:13;;;;;;;8.23;5.53;;;24.50;64.70;;;;;;5043659;28;20222;-42
2021/09/15 12:30:09;;;;;;;9.93;5.00;;;24.60;64.50;;;;;;5044693;28;20041;-43
2021/09/15 12:32:57;;;;;;;9.10;5.50;;;24.50;64.20;;;;;;5044468;28;20079;-42
2021/09/15 12:35:41;;;;;;;7.53;5.30;;;24.50;64.40;;;;;;5044740;28;20060;-43
2021/09/15 12:38:25;;;;;;;9.52;5.82;;;24.50;64.30;;;;;;5043282;28;20038;-44
2021/09/15 12:41:10;;;;;;;9.52;6.00;;;24.50;64.70;;;;;;5044587;28;20036;-43
2021/09/15 12:44:11;;;;;;;8.45;5.72;;;24.50;65.10;;;;;;5044133;28;20036;-42
2021/09/15 12:46:55;;;;;;;12.80;5.80;;;24.50;65.20;;;;;;5044105;28;20355;-42
2021/09/15 12:49:41;;;;;;;10.55;6.03;;;24.50;65.70;;;;;;5044291;28;20087;-47
2021/09/15 12:52:28;;;;;;;8.70;5.65;;;24.50;65.60;;;;;;5044241;28;20359;-45
2021/09/15 12:55:26;;;;;;;10.48;5.95;;;24.50;65.60;;;;;;5044210;28;20072;-43
2021/09/15 12:58:12;;;;;;;8.25;5.40;;;24.50;65.70;;;;;;5044424;28;20108;-42
2021/09/15 13:00:56;;;;;;;7.72;5.55;;;24.40;66.30;;;;;;5044213;28;20028;-41
2021/09/15 13:03:41;;;;;;;9.90;6.45;;;24.30;66.60;;;;;;5043790;28;20084;-41
2021/09/15 13:06:26;;;;;;;10.95;6.38;;;24.40;66.50;;;;;;5044239;28;20217;-42
2021/09/15 13:09:10;;;;;;;9.15;5.95;;;24.40;67.20;;;;;;5044407;28;20036;-42
2021/09/15 13:11:54;;;;;;;9.55;6.43;;;24.30;68.10;;;;;;5044020;28;20044;-42
2021/09/15 13:14:38;;;;;;;12.98;7.22;;;24.30;68.50;;;;;;5043974;28;20040;-42
2021/09/15 13:17:23;;;;;;;15.10;7.72;;;24.30;68.70;;;;;;5043985;28;20056;-43
2021/09/15 13:20:09;;;;;;;9.50;7.18;;;24.20;68.10;;;;;;5043955;28;20081;-42
2021/09/15 13:22:53;;;;;;;11.20;7.78;;;24.30;69.10;;;;;;5043796;28;20080;-42
2021/09/15 13:25:38;;;;;;;12.57;8.45;;;24.30;69.50;;;;;;5043988;28;20261;-42
2021/09/15 13:28:22;;;;;;;11.98;8.40;;;24.20;69.30;;;;;;5043283;28;20356;-42
2021/09/15 13:31:06;;;;;;;11.48;7.80;;;24.20;69.30;;;;;;5044152;28;20048;-42
2021/09/15 13:33:52;;;;;;;11.75;7.45;;;24.20;69.30;;;;;;5043417;28;20355;-42
2021/09/15 13:36:37;;;;;;;11.10;7.40;;;24.20;69.00;;;;;;5043330;28;20037;-44
2021/09/15 13:39:21;;;;;;;16.17;8.30;;;24.20;69.30;;;;;;5044231;28;20367;-42
2021/09/15 13:42:05;;;;;;;11.45;8.55;;;24.30;69.10;;;;;;5043449;28;20401;-43
2021/09/15 13:44:49;;;;;;;14.80;8.48;;;24.20;68.80;;;;;;5043523;28;20229;-42
2021/09/15 13:47:34;;;;;;;14.65;8.82;;;24.20;69.00;;;;;;5043915;28;20086;-42
2021/09/15 13:50:20;;;;;;;14.02;9.13;;;24.20;68.80;;;;;;5043677;28;20072;-43
2021/09/15 13:53:04;;;;;;;15.13;9.20;;;24.20;68.90;;;;;;5043406;28;20036;-42
2021/09/15 13:55:48;;;;;;;12.00;8.20;;;24.20;68.60;;;;;;5043392;28;20052;-44
2021/09/15 13:58:32;;;;;;;13.65;8.77;;;24.20;68.70;;;;;;5043271;28;20097;-44
2021/09/15 14:01:17;;;;;;;15.77;10.55;;;24.10;68.50;;;;;;5043196;28;20033;-43
2021/09/15 14:04:01;;;;;;;14.45;10.23;;;24.00;68.30;;;;;;5043406;28;20029;-43
2021/09/15 14:06:45;;;;;;;15.98;11.23;;;23.90;68.20;;;;;;5043752;28;20375;-42
2021/09/15 14:09:29;;;;;;;14.45;10.00;;;23.90;68.50;;;;;;5043197;28;20033;-42
2021/09/15 14:12:14;;;;;;;18.27;10.45;;;23.90;69.00;;;;;;5043788;28;20028;-43
2021/09/15 14:14:58;;;;;;;14.07;10.25;;;24.00;70.00;;;;;;5043267;28;20232;-44
2021/09/15 14:17:42;;;;;;;16.58;10.77;;;24.10;69.90;;;;;;5043580;28;20084;-43
2021/09/15 14:20:26;;;;;;;14.10;9.73;;;24.20;69.70;;;;;;5043722;28;20268;-43
2021/09/15 14:23:11;;;;;;;15.70;10.43;;;24.20;69.70;;;;;;5043147;28;20165;-42
2021/09/15 14:25:56;;;;;;;17.77;10.63;;;24.20;69.10;;;;;;5043158;28;20091;-42